createdAt,value
2017-06-29T00:15:07.000Z,16.2
2017-06-29T00:31:51.000Z,15.8
2017-06-29T00:48:36.000Z,15.8
2017-06-29T01:05:19.000Z,15.8
2017-06-29T01:22:02.000Z,15.5
2017-06-29T01:55:29.000Z,15.5
2017-06-29T02:12:12.000Z,15.2
2017-06-29T02:28:56.000Z,15.2
2017-06-29T02:45:39.000Z,15.2
2017-06-29T03:02:22.000Z,15.2
2017-06-29T03:19:05.000Z,15.2
2017-06-29T03:35:49.000Z,15.2
2017-06-29T03:52:32.000Z,15.2
2017-06-29T04:09:16.000Z,15.2
2017-06-29T04:25:59.000Z,15.5
2017-06-29T04:42:43.000Z,15.5
2017-06-29T05:16:10.000Z,16.2
2017-06-29T05:32:55.000Z,16.5
2017-06-29T05:42:57.000Z,17.1
2017-06-29T05:53:00.000Z,17.8
2017-06-29T06:09:46.000Z,18.1
2017-06-29T06:23:10.000Z,18.7
2017-06-29T06:33:14.000Z,19.4
2017-06-29T06:50:01.000Z,19.7
2017-06-29T07:06:48.000Z,20
2017-06-29T07:23:35.000Z,20
2017-06-29T07:40:22.000Z,20.3
2017-06-29T07:57:11.000Z,20.6
2017-06-29T08:13:58.000Z,20.3
2017-06-29T08:30:45.000Z,19.7
2017-06-29T08:47:32.000Z,19.7
2017-06-29T08:54:16.000Z,20.3
2017-06-29T09:11:03.000Z,20.3
2017-06-29T09:27:50.000Z,20
2017-06-29T09:37:55.000Z,20.6
2017-06-29T09:44:38.000Z,21.3
2017-06-29T10:01:27.000Z,21
2017-06-29T10:14:53.000Z,20.3
2017-06-29T10:31:42.000Z,20.6
2017-06-29T10:48:29.000Z,21
2017-06-29T11:05:18.000Z,21.3
2017-06-29T11:15:23.000Z,20.6
2017-06-29T11:32:11.000Z,21
2017-06-29T11:42:16.000Z,21.6
2017-06-29T11:55:43.000Z,21
2017-06-29T12:12:31.000Z,20.3
2017-06-29T12:22:35.000Z,19.7
2017-06-29T12:39:22.000Z,20
2017-06-29T12:56:09.000Z,19.7
2017-06-29T13:12:56.000Z,19.7
2017-06-29T13:29:43.000Z,19.7
2017-06-29T13:46:30.000Z,20
2017-06-29T14:03:17.000Z,20
2017-06-29T14:20:05.000Z,20.3
2017-06-29T14:36:53.000Z,20.6
2017-06-29T14:53:40.000Z,20.6
2017-06-29T15:10:28.000Z,21
2017-06-29T15:27:17.000Z,21
2017-06-29T15:44:05.000Z,21
2017-06-29T16:00:53.000Z,20.6
2017-06-29T16:17:41.000Z,21
2017-06-29T16:34:29.000Z,21
2017-06-29T16:51:17.000Z,21
2017-06-29T17:08:05.000Z,20.6
2017-06-29T17:21:30.000Z,20
2017-06-29T17:38:18.000Z,19.7
2017-06-29T17:55:05.000Z,19.7
2017-06-29T18:11:51.000Z,19.7
2017-06-29T18:28:38.000Z,19.4
2017-06-29T18:45:25.000Z,19
2017-06-29T19:02:11.000Z,18.7
2017-06-29T19:18:57.000Z,18.4
2017-06-29T19:35:43.000Z,18.4
2017-06-29T19:52:28.000Z,18.4
2017-06-29T20:09:14.000Z,18.4
2017-06-29T20:26:00.000Z,18.1
2017-06-29T20:42:45.000Z,18.1
2017-06-29T20:59:30.000Z,17.8
2017-06-29T21:16:16.000Z,17.8
2017-06-29T21:33:01.000Z,17.8
2017-06-29T21:49:46.000Z,17.4
2017-06-29T22:06:31.000Z,17.4
2017-06-29T22:23:16.000Z,17.4
2017-06-29T22:40:01.000Z,17.4
2017-06-29T22:56:45.000Z,17.4
2017-06-29T23:13:31.000Z,17.1
2017-06-29T23:30:15.000Z,17.1
2017-06-29T23:47:00.000Z,17.1
